sensor_id;sensor_type;location;lat;lon;timestamp;P1;durP1;ratioP1;P2;durP2;ratioP2
57667;SDS011;43499;52.366;12.912;2023-02-11T00:14:18;72.57;;;26.42;;
57667;SDS011;43499;52.366;12.912;2023-02-11T00:16:18;75.25;;;25.58;;
57667;SDS011;43499;52.366;12.912;2023-02-11T00:23:34;70.50;;;26.55;;
57667;SDS011;43499;52.366;12.912;2023-02-11T00:25:54;72.15;;;26.35;;
57667;SDS011;43499;52.366;12.912;2023-02-11T00:31:05;64.70;;;26.63;;
57667;SDS011;43499;52.366;12.912;2023-02-11T00:33:33;64.22;;;26.52;;
57667;SDS011;43499;52.366;12.912;2023-02-11T00:37:48;63.80;;;26.75;;
57667;SDS011;43499;52.366;12.912;2023-02-11T00:39:41;73.55;;;27.85;;
57667;SDS011;43499;52.366;12.912;2023-02-11T00:46:07;71.80;;;26.10;;
57667;SDS011;43499;52.366;12.912;2023-02-11T00:48:07;55.58;;;23.83;;
57667;SDS011;43499;52.366;12.912;2023-02-11T00:55:51;62.83;;;26.42;;
57667;SDS011;43499;52.366;12.912;2023-02-11T00:57:46;62.20;;;24.50;;
57667;SDS011;43499;52.366;12.912;2023-02-11T00:58:50;68.63;;;27.40;;
57667;SDS011;43499;52.366;12.912;2023-02-11T00:59:51;65.75;;;24.00;;
57667;SDS011;43499;52.366;12.912;2023-02-11T01:00:53;74.03;;;29.40;;
57667;SDS011;43499;52.366;12.912;2023-02-11T01:01:54;60.90;;;26.08;;
57667;SDS011;43499;52.366;12.912;2023-02-11T01:02:55;65.38;;;28.83;;
57667;SDS011;43499;52.366;12.912;2023-02-11T01:03:57;75.72;;;27.20;;
57667;SDS011;43499;52.366;12.912;2023-02-11T01:04:58;70.53;;;27.90;;
57667;SDS011;43499;52.366;12.912;2023-02-11T01:06:00;60.97;;;26.80;;
57667;SDS011;43499;52.366;12.912;2023-02-11T01:07:01;65.35;;;27.58;;
57667;SDS011;43499;52.366;12.912;2023-02-11T01:08:02;66.10;;;29.33;;
57667;SDS011;43499;52.366;12.912;2023-02-11T01:09:03;68.75;;;28.13;;
57667;SDS011;43499;52.366;12.912;2023-02-11T01:10:04;58.25;;;27.50;;
57667;SDS011;43499;52.366;12.912;2023-02-11T01:11:06;73.05;;;28.08;;
57667;SDS011;43499;52.366;12.912;2023-02-11T01:12:13;73.30;;;29.27;;
57667;SDS011;43499;52.366;12.912;2023-02-11T01:13:14;73.07;;;30.17;;
57667;SDS011;43499;52.366;12.912;2023-02-11T01:14:16;69.93;;;27.00;;
57667;SDS011;43499;52.366;12.912;2023-02-11T01:15:18;64.72;;;25.38;;
57667;SDS011;43499;52.366;12.912;2023-02-11T01:16:20;71.35;;;28.35;;
57667;SDS011;43499;52.366;12.912;2023-02-11T01:17:21;61.67;;;27.85;;
57667;SDS011;43499;52.366;12.912;2023-02-11T01:18:24;58.40;;;27.73;;
57667;SDS011;43499;52.366;12.912;2023-02-11T01:19:25;67.50;;;27.38;;
57667;SDS011;43499;52.366;12.912;2023-02-11T01:20:27;67.35;;;28.35;;
57667;SDS011;43499;52.366;12.912;2023-02-11T01:21:31;60.03;;;27.23;;
57667;SDS011;43499;52.366;12.912;2023-02-11T01:22:32;67.78;;;28.63;;
57667;SDS011;43499;52.366;12.912;2023-02-11T01:23:34;67.40;;;28.33;;
57667;SDS011;43499;52.366;12.912;2023-02-11T01:24:35;62.70;;;27.00;;
57667;SDS011;43499;52.366;12.912;2023-02-11T01:25:36;62.53;;;28.40;;
57667;SDS011;43499;52.366;12.912;2023-02-11T01:26:37;68.88;;;28.08;;
57667;SDS011;43499;52.366;12.912;2023-02-11T01:27:39;67.30;;;29.10;;
57667;SDS011;43499;52.366;12.912;2023-02-11T01:28:40;65.00;;;27.73;;
57667;SDS011;43499;52.366;12.912;2023-02-11T01:29:41;69.10;;;28.10;;
57667;SDS011;43499;52.366;12.912;2023-02-11T01:30:42;75.82;;;29.83;;
57667;SDS011;43499;52.366;12.912;2023-02-11T01:31:43;72.03;;;29.13;;
57667;SDS011;43499;52.366;12.912;2023-02-11T01:32:44;71.88;;;30.23;;
57667;SDS011;43499;52.366;12.912;2023-02-11T01:33:45;68.30;;;28.92;;
57667;SDS011;43499;52.366;12.912;2023-02-11T01:34:46;65.07;;;28.00;;
57667;SDS011;43499;52.366;12.912;2023-02-11T01:35:47;59.25;;;27.25;;
57667;SDS011;43499;52.366;12.912;2023-02-11T01:36:48;71.28;;;28.48;;
57667;SDS011;43499;52.366;12.912;2023-02-11T01:38:01;73.15;;;31.05;;
57667;SDS011;43499;52.366;12.912;2023-02-11T01:39:32;62.17;;;27.65;;
57667;SDS011;43499;52.366;12.912;2023-02-11T01:40:34;75.80;;;29.58;;
57667;SDS011;43499;52.366;12.912;2023-02-11T01:41:36;63.60;;;28.40;;
57667;SDS011;43499;52.366;12.912;2023-02-11T01:42:37;65.75;;;28.80;;
57667;SDS011;43499;52.366;12.912;2023-02-11T01:43:39;78.45;;;27.02;;
57667;SDS011;43499;52.366;12.912;2023-02-11T01:44:42;69.20;;;28.65;;
57667;SDS011;43499;52.366;12.912;2023-02-11T01:46:45;72.95;;;31.92;;
57667;SDS011;43499;52.366;12.912;2023-02-11T01:47:46;71.32;;;30.17;;
57667;SDS011;43499;52.366;12.912;2023-02-11T01:48:49;66.47;;;29.98;;
57667;SDS011;43499;52.366;12.912;2023-02-11T01:49:56;70.65;;;30.35;;
57667;SDS011;43499;52.366;12.912;2023-02-11T01:51:00;70.55;;;30.48;;
57667;SDS011;43499;52.366;12.912;2023-02-11T01:52:08;90.50;;;31.98;;
57667;SDS011;43499;52.366;12.912;2023-02-11T01:53:14;73.95;;;28.45;;
57667;SDS011;43499;52.366;12.912;2023-02-11T01:54:37;61.42;;;27.98;;
57667;SDS011;43499;52.366;12.912;2023-02-11T01:56:00;76.43;;;28.83;;
57667;SDS011;43499;52.366;12.912;2023-02-11T01:57:23;66.35;;;27.88;;
57667;SDS011;43499;52.366;12.912;2023-02-11T01:58:28;64.13;;;28.20;;
57667;SDS011;43499;52.366;12.912;2023-02-11T02:01:18;77.95;;;29.38;;
57667;SDS011;43499;52.366;12.912;2023-02-11T02:02:27;72.28;;;28.95;;
57667;SDS011;43499;52.366;12.912;2023-02-11T02:03:38;67.95;;;30.20;;
57667;SDS011;43499;52.366;12.912;2023-02-11T02:04:45;69.32;;;28.77;;
57667;SDS011;43499;52.366;12.912;2023-02-11T02:07:27;68.35;;;29.30;;
57667;SDS011;43499;52.366;12.912;2023-02-11T02:08:43;72.13;;;27.77;;
57667;SDS011;43499;52.366;12.912;2023-02-11T02:09:51;71.55;;;28.88;;
57667;SDS011;43499;52.366;12.912;2023-02-11T02:10:58;71.88;;;29.05;;
57667;SDS011;43499;52.366;12.912;2023-02-11T02:12:00;74.47;;;31.98;;
57667;SDS011;43499;52.366;12.912;2023-02-11T02:13:02;75.07;;;31.45;;
57667;SDS011;43499;52.366;12.912;2023-02-11T02:14:03;62.25;;;28.20;;
57667;SDS011;43499;52.366;12.912;2023-02-11T02:16:34;66.53;;;29.80;;
57667;SDS011;43499;52.366;12.912;2023-02-11T02:17:37;67.63;;;29.98;;
57667;SDS011;43499;52.366;12.912;2023-02-11T02:18:52;66.35;;;28.83;;
57667;SDS011;43499;52.366;12.912;2023-02-11T02:20:15;72.03;;;30.27;;
57667;SDS011;43499;52.366;12.912;2023-02-11T02:21:44;72.38;;;29.55;;
57667;SDS011;43499;52.366;12.912;2023-02-11T02:23:25;68.13;;;27.98;;
57667;SDS011;43499;52.366;12.912;2023-02-11T02:24:46;67.85;;;28.52;;
57667;SDS011;43499;52.366;12.912;2023-02-11T02:27:49;78.00;;;31.25;;
57667;SDS011;43499;52.366;12.912;2023-02-11T02:31:06;72.53;;;27.83;;
57667;SDS011;43499;52.366;12.912;2023-02-11T02:33:57;78.20;;;29.88;;
57667;SDS011;43499;52.366;12.912;2023-02-11T02:35:32;76.05;;;29.15;;
57667;SDS011;43499;52.366;12.912;2023-02-11T02:36:37;65.28;;;29.90;;
57667;SDS011;43499;52.366;12.912;2023-02-11T02:39:12;73.35;;;30.45;;
57667;SDS011;43499;52.366;12.912;2023-02-11T02:40:38;85.18;;;32.80;;
57667;SDS011;43499;52.366;12.912;2023-02-11T02:41:44;73.80;;;30.83;;
57667;SDS011;43499;52.366;12.912;2023-02-11T02:42:48;80.13;;;30.20;;
57667;SDS011;43499;52.366;12.912;2023-02-11T02:43:50;74.60;;;31.20;;
57667;SDS011;43499;52.366;12.912;2023-02-11T02:44:52;75.63;;;31.40;;
57667;SDS011;43499;52.366;12.912;2023-02-11T02:46:07;73.90;;;30.50;;
57667;SDS011;43499;52.366;12.912;2023-02-11T02:47:10;64.35;;;27.85;;
57667;SDS011;43499;52.366;12.912;2023-02-11T02:48:24;81.35;;;32.40;;
57667;SDS011;43499;52.366;12.912;2023-02-11T02:49:26;70.35;;;31.55;;
57667;SDS011;43499;52.366;12.912;2023-02-11T02:50:29;80.63;;;31.83;;
57667;SDS011;43499;52.366;12.912;2023-02-11T02:51:43;74.70;;;31.70;;
57667;SDS011;43499;52.366;12.912;2023-02-11T02:53:08;79.80;;;30.90;;
57667;SDS011;43499;52.366;12.912;2023-02-11T02:54:23;78.75;;;30.83;;
57667;SDS011;43499;52.366;12.912;2023-02-11T02:55:38;80.97;;;33.47;;
57667;SDS011;43499;52.366;12.912;2023-02-11T02:56:49;80.82;;;32.63;;
57667;SDS011;43499;52.366;12.912;2023-02-11T02:58:20;88.60;;;31.83;;
57667;SDS011;43499;52.366;12.912;2023-02-11T02:59:53;81.80;;;32.85;;
57667;SDS011;43499;52.366;12.912;2023-02-11T03:02:35;75.13;;;32.50;;
57667;SDS011;43499;52.366;12.912;2023-02-11T03:05:25;77.13;;;30.35;;
57667;SDS011;43499;52.366;12.912;2023-02-11T03:07:50;80.28;;;30.17;;
57667;SDS011;43499;52.366;12.912;2023-02-11T03:09:10;76.65;;;31.02;;
57667;SDS011;43499;52.366;12.912;2023-02-11T03:10:17;75.55;;;32.17;;
57667;SDS011;43499;52.366;12.912;2023-02-11T03:11:23;63.28;;;29.58;;
57667;SDS011;43499;52.366;12.912;2023-02-11T03:12:26;81.75;;;32.47;;
57667;SDS011;43499;52.366;12.912;2023-02-11T03:13:31;80.60;;;32.40;;
57667;SDS011;43499;52.366;12.912;2023-02-11T03:14:35;75.88;;;32.72;;
57667;SDS011;43499;52.366;12.912;2023-02-11T03:15:38;77.57;;;34.35;;
57667;SDS011;43499;52.366;12.912;2023-02-11T03:16:42;82.00;;;33.45;;
57667;SDS011;43499;52.366;12.912;2023-02-11T03:17:46;79.60;;;33.45;;
57667;SDS011;43499;52.366;12.912;2023-02-11T03:18:58;82.90;;;32.85;;
57667;SDS011;43499;52.366;12.912;2023-02-11T03:20:04;77.43;;;32.22;;
57667;SDS011;43499;52.366;12.912;2023-02-11T03:21:09;72.07;;;32.05;;
57667;SDS011;43499;52.366;12.912;2023-02-11T03:22:47;82.25;;;32.75;;
57667;SDS011;43499;52.366;12.912;2023-02-11T03:23:49;77.82;;;33.42;;
57667;SDS011;43499;52.366;12.912;2023-02-11T03:24:54;74.85;;;32.03;;
57667;SDS011;43499;52.366;12.912;2023-02-11T03:26:02;76.85;;;33.72;;
57667;SDS011;43499;52.366;12.912;2023-02-11T03:28:37;78.30;;;33.15;;
57667;SDS011;43499;52.366;12.912;2023-02-11T03:30:16;76.90;;;31.80;;
57667;SDS011;43499;52.366;12.912;2023-02-11T03:31:46;87.88;;;32.20;;
57667;SDS011;43499;52.366;12.912;2023-02-11T03:33:02;82.43;;;31.83;;
57667;SDS011;43499;52.366;12.912;2023-02-11T03:34:09;80.35;;;32.45;;
57667;SDS011;43499;52.366;12.912;2023-02-11T03:35:40;77.32;;;32.63;;
57667;SDS011;43499;52.366;12.912;2023-02-11T03:36:48;89.88;;;34.83;;
57667;SDS011;43499;52.366;12.912;2023-02-11T03:37:59;87.20;;;34.78;;
57667;SDS011;43499;52.366;12.912;2023-02-11T03:39:05;81.35;;;32.47;;
57667;SDS011;43499;52.366;12.912;2023-02-11T03:40:16;91.38;;;34.25;;
57667;SDS011;43499;52.366;12.912;2023-02-11T03:41:21;82.47;;;34.28;;
57667;SDS011;43499;52.366;12.912;2023-02-11T03:42:25;86.85;;;31.50;;
57667;SDS011;43499;52.366;12.912;2023-02-11T03:43:33;89.47;;;34.67;;
57667;SDS011;43499;52.366;12.912;2023-02-11T03:44:47;82.40;;;33.97;;
57667;SDS011;43499;52.366;12.912;2023-02-11T03:45:53;81.30;;;33.95;;
57667;SDS011;43499;52.366;12.912;2023-02-11T03:46:55;83.70;;;32.55;;
57667;SDS011;43499;52.366;12.912;2023-02-11T03:48:02;76.63;;;34.00;;
57667;SDS011;43499;52.366;12.912;2023-02-11T03:49:09;83.20;;;32.78;;
57667;SDS011;43499;52.366;12.912;2023-02-11T03:50:13;82.00;;;32.75;;
57667;SDS011;43499;52.366;12.912;2023-02-11T03:51:16;77.93;;;34.60;;
57667;SDS011;43499;52.366;12.912;2023-02-11T03:52:19;81.30;;;36.30;;
57667;SDS011;43499;52.366;12.912;2023-02-11T03:53:22;80.65;;;33.38;;
57667;SDS011;43499;52.366;12.912;2023-02-11T03:54:26;85.18;;;34.65;;
57667;SDS011;43499;52.366;12.912;2023-02-11T03:55:29;82.07;;;33.30;;
57667;SDS011;43499;52.366;12.912;2023-02-11T03:56:39;82.25;;;33.65;;
57667;SDS011;43499;52.366;12.912;2023-02-11T03:57:45;90.22;;;36.17;;
57667;SDS011;43499;52.366;12.912;2023-02-11T03:58:47;77.40;;;33.95;;
57667;SDS011;43499;52.366;12.912;2023-02-11T03:59:55;86.45;;;35.30;;
57667;SDS011;43499;52.366;12.912;2023-02-11T04:00:58;73.00;;;29.98;;
57667;SDS011;43499;52.366;12.912;2023-02-11T04:02:02;76.85;;;33.40;;
57667;SDS011;43499;52.366;12.912;2023-02-11T04:03:03;82.15;;;33.92;;
57667;SDS011;43499;52.366;12.912;2023-02-11T04:04:04;85.22;;;34.92;;
57667;SDS011;43499;52.366;12.912;2023-02-11T04:05:05;87.28;;;35.97;;
57667;SDS011;43499;52.366;12.912;2023-02-11T04:06:08;78.57;;;35.22;;
57667;SDS011;43499;52.366;12.912;2023-02-11T04:07:10;75.40;;;33.35;;
57667;SDS011;43499;52.366;12.912;2023-02-11T04:08:12;83.25;;;34.60;;
57667;SDS011;43499;52.366;12.912;2023-02-11T04:09:13;78.03;;;33.88;;
57667;SDS011;43499;52.366;12.912;2023-02-11T04:10:14;83.70;;;34.53;;
57667;SDS011;43499;52.366;12.912;2023-02-11T04:11:15;85.13;;;36.47;;
57667;SDS011;43499;52.366;12.912;2023-02-11T04:12:16;84.55;;;33.97;;
57667;SDS011;43499;52.366;12.912;2023-02-11T04:13:18;78.30;;;35.17;;
57667;SDS011;43499;52.366;12.912;2023-02-11T04:14:19;86.97;;;33.97;;
57667;SDS011;43499;52.366;12.912;2023-02-11T04:15:20;81.68;;;36.22;;
57667;SDS011;43499;52.366;12.912;2023-02-11T04:16:21;81.30;;;36.75;;
57667;SDS011;43499;52.366;12.912;2023-02-11T04:17:22;95.72;;;36.63;;
57667;SDS011;43499;52.366;12.912;2023-02-11T04:18:23;89.93;;;34.97;;
57667;SDS011;43499;52.366;12.912;2023-02-11T04:19:24;76.45;;;33.17;;
57667;SDS011;43499;52.366;12.912;2023-02-11T04:20:25;80.95;;;36.05;;
57667;SDS011;43499;52.366;12.912;2023-02-11T04:21:26;78.72;;;33.97;;
57667;SDS011;43499;52.366;12.912;2023-02-11T04:22:28;82.10;;;35.30;;
57667;SDS011;43499;52.366;12.912;2023-02-11T04:23:29;88.72;;;33.55;;
57667;SDS011;43499;52.366;12.912;2023-02-11T04:24:30;84.88;;;35.53;;
57667;SDS011;43499;52.366;12.912;2023-02-11T04:25:31;85.50;;;35.60;;
57667;SDS011;43499;52.366;12.912;2023-02-11T04:26:32;87.75;;;35.85;;
57667;SDS011;43499;52.366;12.912;2023-02-11T04:27:33;78.68;;;34.75;;
57667;SDS011;43499;52.366;12.912;2023-02-11T04:28:35;80.68;;;34.30;;
57667;SDS011;43499;52.366;12.912;2023-02-11T04:29:36;82.45;;;36.42;;
57667;SDS011;43499;52.366;12.912;2023-02-11T04:30:37;75.88;;;35.45;;
57667;SDS011;43499;52.366;12.912;2023-02-11T04:31:39;87.20;;;35.42;;
57667;SDS011;43499;52.366;12.912;2023-02-11T04:32:40;83.60;;;36.55;;
57667;SDS011;43499;52.366;12.912;2023-02-11T04:33:41;77.35;;;34.85;;
57667;SDS011;43499;52.366;12.912;2023-02-11T04:34:42;85.40;;;36.13;;
57667;SDS011;43499;52.366;12.912;2023-02-11T04:35:43;77.65;;;35.30;;
57667;SDS011;43499;52.366;12.912;2023-02-11T04:36:44;84.95;;;35.83;;
57667;SDS011;43499;52.366;12.912;2023-02-11T04:37:45;75.90;;;35.83;;
57667;SDS011;43499;52.366;12.912;2023-02-11T04:38:46;80.32;;;35.08;;
57667;SDS011;43499;52.366;12.912;2023-02-11T04:39:48;79.00;;;37.08;;
57667;SDS011;43499;52.366;12.912;2023-02-11T04:40:49;87.35;;;37.22;;
57667;SDS011;43499;52.366;12.912;2023-02-11T04:41:50;84.28;;;36.47;;
57667;SDS011;43499;52.366;12.912;2023-02-11T04:42:51;87.88;;;36.05;;
57667;SDS011;43499;52.366;12.912;2023-02-11T04:43:52;85.90;;;37.97;;
57667;SDS011;43499;52.366;12.912;2023-02-11T04:44:53;87.80;;;37.15;;
57667;SDS011;43499;52.366;12.912;2023-02-11T04:45:57;85.38;;;37.60;;
57667;SDS011;43499;52.366;12.912;2023-02-11T04:46:58;75.88;;;36.05;;
57667;SDS011;43499;52.366;12.912;2023-02-11T04:48:00;92.88;;;37.97;;
57667;SDS011;43499;52.366;12.912;2023-02-11T04:49:02;85.85;;;34.90;;
57667;SDS011;43499;52.366;12.912;2023-02-11T04:50:03;80.38;;;34.15;;
57667;SDS011;43499;52.366;12.912;2023-02-11T04:51:05;79.75;;;37.22;;
57667;SDS011;43499;52.366;12.912;2023-02-11T04:52:06;83.20;;;35.85;;
57667;SDS011;43499;52.366;12.912;2023-02-11T04:53:07;77.30;;;36.03;;
57667;SDS011;43499;52.366;12.912;2023-02-11T04:54:08;80.13;;;34.20;;
57667;SDS011;43499;52.366;12.912;2023-02-11T04:55:10;81.40;;;34.85;;
57667;SDS011;43499;52.366;12.912;2023-02-11T04:56:11;78.20;;;35.63;;
57667;SDS011;43499;52.366;12.912;2023-02-11T04:57:13;74.18;;;35.15;;
57667;SDS011;43499;52.366;12.912;2023-02-11T04:58:14;86.72;;;37.40;;
57667;SDS011;43499;52.366;12.912;2023-02-11T04:59:15;79.22;;;34.38;;
57667;SDS011;43499;52.366;12.912;2023-02-11T05:00:16;85.70;;;36.80;;
57667;SDS011;43499;52.366;12.912;2023-02-11T05:01:17;88.03;;;38.60;;
57667;SDS011;43499;52.366;12.912;2023-02-11T05:02:18;87.22;;;37.10;;
57667;SDS011;43499;52.366;12.912;2023-02-11T05:03:19;82.25;;;34.58;;
57667;SDS011;43499;52.366;12.912;2023-02-11T05:04:20;80.78;;;34.38;;
57667;SDS011;43499;52.366;12.912;2023-02-11T05:05:21;85.18;;;34.15;;
57667;SDS011;43499;52.366;12.912;2023-02-11T05:06:22;81.82;;;36.05;;
57667;SDS011;43499;52.366;12.912;2023-02-11T05:07:23;85.65;;;34.35;;
57667;SDS011;43499;52.366;12.912;2023-02-11T05:08:24;88.50;;;37.17;;
57667;SDS011;43499;52.366;12.912;2023-02-11T05:09:25;87.22;;;38.08;;
57667;SDS011;43499;52.366;12.912;2023-02-11T05:10:26;84.85;;;36.50;;
57667;SDS011;43499;52.366;12.912;2023-02-11T05:11:28;87.85;;;36.30;;
57667;SDS011;43499;52.366;12.912;2023-02-11T05:12:29;83.15;;;36.22;;
57667;SDS011;43499;52.366;12.912;2023-02-11T05:13:30;82.35;;;36.22;;
57667;SDS011;43499;52.366;12.912;2023-02-11T05:14:31;79.90;;;35.70;;
57667;SDS011;43499;52.366;12.912;2023-02-11T05:15:33;80.82;;;36.10;;
57667;SDS011;43499;52.366;12.912;2023-02-11T05:16:34;83.28;;;37.30;;
57667;SDS011;43499;52.366;12.912;2023-02-11T05:17:35;86.47;;;38.00;;
57667;SDS011;43499;52.366;12.912;2023-02-11T05:18:37;84.35;;;36.90;;
57667;SDS011;43499;52.366;12.912;2023-02-11T05:19:38;82.80;;;35.67;;
57667;SDS011;43499;52.366;12.912;2023-02-11T05:20:41;92.13;;;38.80;;
57667;SDS011;43499;52.366;12.912;2023-02-11T05:21:42;95.72;;;38.65;;
57667;SDS011;43499;52.366;12.912;2023-02-11T05:22:43;82.72;;;36.17;;
57667;SDS011;43499;52.366;12.912;2023-02-11T05:23:45;86.68;;;39.10;;
57667;SDS011;43499;52.366;12.912;2023-02-11T05:24:46;84.35;;;35.88;;
57667;SDS011;43499;52.366;12.912;2023-02-11T05:25:47;86.40;;;36.78;;
57667;SDS011;43499;52.366;12.912;2023-02-11T05:26:48;82.93;;;35.65;;
57667;SDS011;43499;52.366;12.912;2023-02-11T05:27:49;91.72;;;37.28;;
57667;SDS011;43499;52.366;12.912;2023-02-11T05:28:50;90.80;;;37.95;;
57667;SDS011;43499;52.366;12.912;2023-02-11T05:29:51;94.57;;;38.33;;
57667;SDS011;43499;52.366;12.912;2023-02-11T05:30:52;94.38;;;37.42;;
57667;SDS011;43499;52.366;12.912;2023-02-11T05:31:53;98.80;;;38.72;;
57667;SDS011;43499;52.366;12.912;2023-02-11T05:32:54;86.93;;;38.60;;
57667;SDS011;43499;52.366;12.912;2023-02-11T05:33:55;96.10;;;40.85;;
57667;SDS011;43499;52.366;12.912;2023-02-11T05:34:56;100.82;;;40.78;;
57667;SDS011;43499;52.366;12.912;2023-02-11T05:35:58;87.35;;;38.85;;
57667;SDS011;43499;52.366;12.912;2023-02-11T05:37:00;90.68;;;36.58;;
57667;SDS011;43499;52.366;12.912;2023-02-11T05:38:01;90.20;;;37.00;;
57667;SDS011;43499;52.366;12.912;2023-02-11T05:39:02;91.18;;;37.83;;
57667;SDS011;43499;52.366;12.912;2023-02-11T05:40:03;88.82;;;38.15;;
57667;SDS011;43499;52.366;12.912;2023-02-11T05:41:05;88.07;;;35.70;;
57667;SDS011;43499;52.366;12.912;2023-02-11T05:42:06;89.97;;;36.97;;
57667;SDS011;43499;52.366;12.912;2023-02-11T05:43:07;84.43;;;37.38;;
57667;SDS011;43499;52.366;12.912;2023-02-11T05:44:08;83.60;;;37.83;;
57667;SDS011;43499;52.366;12.912;2023-02-11T05:45:09;93.45;;;38.38;;
57667;SDS011;43499;52.366;12.912;2023-02-11T05:46:10;99.47;;;39.72;;
57667;SDS011;43499;52.366;12.912;2023-02-11T05:47:11;89.47;;;37.55;;
57667;SDS011;43499;52.366;12.912;2023-02-11T05:48:13;95.85;;;38.88;;
57667;SDS011;43499;52.366;12.912;2023-02-11T05:49:15;92.30;;;38.47;;
57667;SDS011;43499;52.366;12.912;2023-02-11T05:50:17;92.65;;;38.05;;
57667;SDS011;43499;52.366;12.912;2023-02-11T05:51:18;87.15;;;39.75;;
57667;SDS011;43499;52.366;12.912;2023-02-11T05:52:19;81.13;;;36.88;;
57667;SDS011;43499;52.366;12.912;2023-02-11T05:53:21;85.97;;;35.90;;
57667;SDS011;43499;52.366;12.912;2023-02-11T05:54:22;101.82;;;40.45;;
57667;SDS011;43499;52.366;12.912;2023-02-11T05:55:23;98.63;;;39.03;;
57667;SDS011;43499;52.366;12.912;2023-02-11T05:56:24;97.22;;;38.17;;
57667;SDS011;43499;52.366;12.912;2023-02-11T05:57:25;93.95;;;40.00;;
57667;SDS011;43499;52.366;12.912;2023-02-11T05:58:26;82.38;;;37.05;;
57667;SDS011;43499;52.366;12.912;2023-02-11T05:59:27;94.60;;;36.95;;
57667;SDS011;43499;52.366;12.912;2023-02-11T06:00:28;101.10;;;39.13;;
57667;SDS011;43499;52.366;12.912;2023-02-11T06:01:29;100.78;;;39.85;;
57667;SDS011;43499;52.366;12.912;2023-02-11T06:02:31;91.97;;;40.03;;
57667;SDS011;43499;52.366;12.912;2023-02-11T06:03:32;98.30;;;41.55;;
57667;SDS011;43499;52.366;12.912;2023-02-11T06:04:33;82.97;;;37.25;;
57667;SDS011;43499;52.366;12.912;2023-02-11T06:05:35;91.32;;;39.08;;
57667;SDS011;43499;52.366;12.912;2023-02-11T06:06:36;83.95;;;37.55;;
57667;SDS011;43499;52.366;12.912;2023-02-11T06:07:37;90.65;;;39.00;;
57667;SDS011;43499;52.366;12.912;2023-02-11T06:08:38;80.50;;;35.40;;
57667;SDS011;43499;52.366;12.912;2023-02-11T06:09:39;98.80;;;40.58;;
57667;SDS011;43499;52.366;12.912;2023-02-11T06:10:43;88.88;;;39.40;;
57667;SDS011;43499;52.366;12.912;2023-02-11T06:11:45;101.80;;;39.65;;
57667;SDS011;43499;52.366;12.912;2023-02-11T06:12:46;95.38;;;41.05;;
57667;SDS011;43499;52.366;12.912;2023-02-11T06:13:47;85.88;;;38.58;;
57667;SDS011;43499;52.366;12.912;2023-02-11T06:14:48;98.25;;;40.50;;
57667;SDS011;43499;52.366;12.912;2023-02-11T06:15:58;100.22;;;39.25;;
57667;SDS011;43499;52.366;12.912;2023-02-11T06:17:00;90.60;;;39.53;;
57667;SDS011;43499;52.366;12.912;2023-02-11T06:18:01;91.85;;;38.67;;
57667;SDS011;43499;52.366;12.912;2023-02-11T06:19:02;97.22;;;39.00;;
57667;SDS011;43499;52.366;12.912;2023-02-11T06:20:04;96.40;;;40.70;;
57667;SDS011;43499;52.366;12.912;2023-02-11T06:21:07;101.68;;;38.72;;
57667;SDS011;43499;52.366;12.912;2023-02-11T06:22:10;88.20;;;39.47;;
57667;SDS011;43499;52.366;12.912;2023-02-11T06:23:11;94.65;;;38.97;;
57667;SDS011;43499;52.366;12.912;2023-02-11T06:24:12;92.90;;;39.30;;
57667;SDS011;43499;52.366;12.912;2023-02-11T06:25:13;92.57;;;36.97;;
57667;SDS011;43499;52.366;12.912;2023-02-11T06:26:19;88.05;;;38.25;;
57667;SDS011;43499;52.366;12.912;2023-02-11T06:27:21;97.72;;;40.70;;
57667;SDS011;43499;52.366;12.912;2023-02-11T06:28:22;99.97;;;39.75;;
57667;SDS011;43499;52.366;12.912;2023-02-11T06:29:23;87.32;;;36.95;;
57667;SDS011;43499;52.366;12.912;2023-02-11T06:30:24;111.88;;;43.33;;
57667;SDS011;43499;52.366;12.912;2023-02-11T06:31:26;92.43;;;38.30;;
57667;SDS011;43499;52.366;12.912;2023-02-11T06:32:27;95.72;;;38.22;;
57667;SDS011;43499;52.366;12.912;2023-02-11T06:33:28;96.00;;;39.13;;
57667;SDS011;43499;52.366;12.912;2023-02-11T06:34:29;88.72;;;38.70;;
57667;SDS011;43499;52.366;12.912;2023-02-11T06:35:30;99.13;;;41.20;;
57667;SDS011;43499;52.366;12.912;2023-02-11T06:36:33;86.18;;;38.05;;
57667;SDS011;43499;52.366;12.912;2023-02-11T06:37:34;82.20;;;35.72;;
57667;SDS011;43499;52.366;12.912;2023-02-11T06:38:35;88.25;;;37.53;;
57667;SDS011;43499;52.366;12.912;2023-02-11T06:39:36;86.43;;;37.05;;
57667;SDS011;43499;52.366;12.912;2023-02-11T06:40:37;89.57;;;36.45;;
57667;SDS011;43499;52.366;12.912;2023-02-11T06:41:38;90.40;;;38.50;;
57667;SDS011;43499;52.366;12.912;2023-02-11T06:42:39;90.40;;;39.03;;
57667;SDS011;43499;52.366;12.912;2023-02-11T06:43:41;80.30;;;36.05;;
57667;SDS011;43499;52.366;12.912;2023-02-11T06:44:42;88.82;;;38.00;;
57667;SDS011;43499;52.366;12.912;2023-02-11T06:45:44;88.32;;;38.65;;
57667;SDS011;43499;52.366;12.912;2023-02-11T06:46:45;94.25;;;39.60;;
57667;SDS011;43499;52.366;12.912;2023-02-11T06:47:46;93.40;;;39.55;;
57667;SDS011;43499;52.366;12.912;2023-02-11T06:48:47;102.22;;;40.72;;
57667;SDS011;43499;52.366;12.912;2023-02-11T06:49:48;94.63;;;38.20;;
57667;SDS011;43499;52.366;12.912;2023-02-11T06:50:49;92.88;;;38.30;;
57667;SDS011;43499;52.366;12.912;2023-02-11T06:51:50;92.72;;;40.60;;
57667;SDS011;43499;52.366;12.912;2023-02-11T06:52:51;91.55;;;38.45;;
57667;SDS011;43499;52.366;12.912;2023-02-11T06:53:52;97.90;;;38.00;;
57667;SDS011;43499;52.366;12.912;2023-02-11T06:54:54;75.03;;;34.65;;
57667;SDS011;43499;52.366;12.912;2023-02-11T06:55:55;91.40;;;38.88;;
57667;SDS011;43499;52.366;12.912;2023-02-11T06:56:56;91.93;;;38.95;;
57667;SDS011;43499;52.366;12.912;2023-02-11T06:57:57;78.88;;;37.00;;
57667;SDS011;43499;52.366;12.912;2023-02-11T06:58:58;83.53;;;36.72;;
57667;SDS011;43499;52.366;12.912;2023-02-11T06:59:59;86.47;;;37.85;;
57667;SDS011;43499;52.366;12.912;2023-02-11T07:01:04;90.95;;;37.47;;
57667;SDS011;43499;52.366;12.912;2023-02-11T07:13:50;72.00;;;29.92;;
57667;SDS011;43499;52.366;12.912;2023-02-11T07:25:18;70.05;;;31.38;;
57667;SDS011;43499;52.366;12.912;2023-02-11T07:27:51;65.72;;;29.95;;
57667;SDS011;43499;52.366;12.912;2023-02-11T07:30:41;71.63;;;30.83;;
57667;SDS011;43499;52.366;12.912;2023-02-11T07:40:10;63.88;;;29.75;;
57667;SDS011;43499;52.366;12.912;2023-02-11T07:41:24;61.20;;;30.52;;
57667;SDS011;43499;52.366;12.912;2023-02-11T07:43:37;62.63;;;29.02;;
57667;SDS011;43499;52.366;12.912;2023-02-11T07:46:34;61.47;;;29.98;;
57667;SDS011;43499;52.366;12.912;2023-02-11T07:48:00;71.05;;;30.83;;
57667;SDS011;43499;52.366;12.912;2023-02-11T07:49:10;65.82;;;30.25;;
57667;SDS011;43499;52.366;12.912;2023-02-11T07:56:09;62.20;;;29.10;;
57667;SDS011;43499;52.366;12.912;2023-02-11T07:58:02;60.63;;;26.55;;
57667;SDS011;43499;52.366;12.912;2023-02-11T07:59:39;66.75;;;28.65;;